createdAt,value
2017-09-23T00:01:47.052Z,20.03
2017-09-23T00:04:14.415Z,20.02
2017-09-23T00:06:41.649Z,20.01
2017-09-23T00:09:08.933Z,20.01
2017-09-23T00:11:36.134Z,20.00
2017-09-23T00:14:03.567Z,20.01
2017-09-23T00:16:33.468Z,20.00
2017-09-23T00:19:00.815Z,20.00
2017-09-23T00:21:28.091Z,20.00
2017-09-23T00:23:55.360Z,19.99
2017-09-23T00:26:22.724Z,19.97
2017-09-23T00:28:50.068Z,19.99
2017-09-23T00:31:17.302Z,19.99
2017-09-23T00:33:44.756Z,19.98
2017-09-23T00:36:11.957Z,19.97
2017-09-23T00:38:39.296Z,19.97
2017-09-23T00:41:06.552Z,19.96
2017-09-23T00:43:33.770Z,19.96
2017-09-23T00:46:01.005Z,19.97
2017-09-23T00:48:28.239Z,19.96
2017-09-23T00:50:55.442Z,19.96
2017-09-23T00:53:22.818Z,19.96
2017-09-23T00:55:50.039Z,19.95
2017-09-23T00:58:17.304Z,19.95
2017-09-23T01:00:44.569Z,19.93
2017-09-23T01:03:11.875Z,19.93
2017-09-23T01:05:40.582Z,19.92
2017-09-23T01:08:07.890Z,19.92
2017-09-23T01:10:35.220Z,19.92
2017-09-23T01:13:02.440Z,19.91
2017-09-23T01:15:29.721Z,19.92
2017-09-23T01:17:56.957Z,19.91
2017-09-23T01:20:24.244Z,19.90
2017-09-23T01:22:51.477Z,19.90
2017-09-23T01:25:20.869Z,19.90
2017-09-23T01:30:21.863Z,19.89
2017-09-23T01:32:49.079Z,19.89
2017-09-23T01:35:16.347Z,19.88
2017-09-23T01:37:43.722Z,19.87
2017-09-23T01:40:10.967Z,19.88
2017-09-23T01:42:38.306Z,19.88
2017-09-23T01:45:05.528Z,19.87
2017-09-23T01:47:32.786Z,19.86
2017-09-23T01:50:00.086Z,19.87
2017-09-23T01:52:27.345Z,19.87
2017-09-23T01:54:54.539Z,19.86
2017-09-23T01:57:22.036Z,19.86
2017-09-23T01:59:49.304Z,19.86
2017-09-23T02:02:16.977Z,19.86
2017-09-23T02:04:44.272Z,19.85
2017-09-23T02:07:11.844Z,19.85
2017-09-23T02:09:39.096Z,19.85
2017-09-23T02:12:06.394Z,19.85
2017-09-23T02:14:33.950Z,19.85
2017-09-23T02:17:02.659Z,19.84
2017-09-23T02:19:30.089Z,19.84
2017-09-23T02:21:57.418Z,19.84
2017-09-23T02:24:24.653Z,19.84
2017-09-23T02:26:51.883Z,19.84
2017-09-23T02:29:19.159Z,19.83
2017-09-23T02:31:46.387Z,19.83
2017-09-23T02:34:15.918Z,19.83
2017-09-23T02:36:43.294Z,19.83
2017-09-23T02:39:10.545Z,19.83
2017-09-23T02:41:37.866Z,19.83
2017-09-23T02:44:05.214Z,19.83
2017-09-23T02:46:32.455Z,19.83
2017-09-23T02:48:59.710Z,19.82
2017-09-23T02:51:26.976Z,19.82
2017-09-23T02:53:54.205Z,19.83
2017-09-23T02:56:21.478Z,19.82
2017-09-23T02:58:48.766Z,19.82
2017-09-23T03:01:15.986Z,19.82
2017-09-23T03:03:43.441Z,19.82
2017-09-23T03:06:10.736Z,19.82
2017-09-23T03:08:37.975Z,19.82
2017-09-23T03:11:05.270Z,19.82
2017-09-23T03:13:32.532Z,19.82
2017-09-23T03:15:59.817Z,19.82
2017-09-23T03:18:27.111Z,19.82
2017-09-23T03:20:58.982Z,19.82
2017-09-23T03:23:26.328Z,19.81
2017-09-23T03:25:53.606Z,19.82
2017-09-23T03:28:20.828Z,19.81
2017-09-23T03:30:48.109Z,19.82
2017-09-23T03:33:15.360Z,19.81
2017-09-23T03:35:42.640Z,19.80
2017-09-23T03:38:09.907Z,19.81
2017-09-23T03:40:37.218Z,19.81
2017-09-23T03:43:04.477Z,19.81
2017-09-23T03:45:31.728Z,19.81
2017-09-23T03:48:06.200Z,19.81
2017-09-23T03:50:33.455Z,19.81
2017-09-23T03:53:00.699Z,19.81
2017-09-23T03:55:28.018Z,19.81
2017-09-23T03:57:56.344Z,19.81
2017-09-23T04:00:24.247Z,19.79
2017-09-23T04:02:53.549Z,19.81
2017-09-23T04:05:20.871Z,19.79
2017-09-23T04:07:48.127Z,19.80
2017-09-23T04:10:15.463Z,19.81
2017-09-23T04:12:42.703Z,19.81
2017-09-23T04:15:09.980Z,19.80
2017-09-23T04:17:37.236Z,19.80
2017-09-23T04:20:04.588Z,19.81
2017-09-23T04:22:31.916Z,19.80
2017-09-23T04:24:59.148Z,19.80
2017-09-23T04:27:26.348Z,19.80
2017-09-23T04:29:53.620Z,19.79
2017-09-23T04:32:20.871Z,19.80
2017-09-23T04:34:54.832Z,19.79
2017-09-23T04:37:22.087Z,19.79
2017-09-23T04:39:49.465Z,19.79
2017-09-23T04:42:16.652Z,19.79
2017-09-23T04:44:43.919Z,19.79
2017-09-23T04:47:11.184Z,19.79
2017-09-23T04:49:38.404Z,19.79
2017-09-23T04:52:05.708Z,19.79
2017-09-23T04:54:33.025Z,19.78
2017-09-23T04:57:00.395Z,19.79
2017-09-23T04:59:29.514Z,19.79
2017-09-23T05:01:57.501Z,19.79
2017-09-23T05:04:24.741Z,19.79
2017-09-23T05:06:51.982Z,19.79
2017-09-23T05:09:19.306Z,19.79
2017-09-23T05:11:46.535Z,19.79
2017-09-23T05:14:14.445Z,19.79
2017-09-23T05:16:41.732Z,19.79
2017-09-23T05:19:08.969Z,19.78
2017-09-23T05:21:36.245Z,19.78
2017-09-23T05:24:03.498Z,19.78
2017-09-23T05:26:30.816Z,19.78
2017-09-23T05:28:58.050Z,19.78
2017-09-23T05:31:25.365Z,19.78
2017-09-23T05:33:52.704Z,19.79
2017-09-23T05:36:19.949Z,19.79
2017-09-23T05:38:47.216Z,19.79
2017-09-23T05:41:14.477Z,19.78
2017-09-23T05:43:41.757Z,19.78
2017-09-23T05:46:09.031Z,19.79
2017-09-23T05:48:36.334Z,19.78
2017-09-23T05:51:03.589Z,19.78
2017-09-23T05:53:30.867Z,19.77
2017-09-23T05:55:58.106Z,19.78
2017-09-23T05:58:30.249Z,19.78
2017-09-23T06:00:57.755Z,19.79
2017-09-23T06:03:24.994Z,19.79
2017-09-23T06:05:52.259Z,19.79
2017-09-23T06:08:19.557Z,19.80
2017-09-23T06:10:46.788Z,19.80
2017-09-23T06:13:14.288Z,19.79
2017-09-23T06:20:48.434Z,19.79
2017-09-23T06:23:16.344Z,19.80
2017-09-23T06:25:44.609Z,19.79
2017-09-23T06:28:12.055Z,19.80
2017-09-23T06:35:47.089Z,19.80
2017-09-23T06:38:14.883Z,19.81
2017-09-23T06:40:42.213Z,19.81
2017-09-23T06:43:10.541Z,19.82
2017-09-23T06:45:40.705Z,19.82
2017-09-23T06:48:08.249Z,19.81
2017-09-23T06:50:35.675Z,19.82
2017-09-23T07:49:47.148Z,19.95
2017-09-23T07:52:14.641Z,19.96
2017-09-23T07:54:42.030Z,19.97
2017-09-23T07:57:11.124Z,19.97
2017-09-23T07:59:38.997Z,19.98
2017-09-23T08:02:07.912Z,19.99
2017-09-23T08:07:11.737Z,20.01
2017-09-23T08:09:42.978Z,20.02
2017-09-23T08:12:12.256Z,20.04
2017-09-23T08:14:41.211Z,20.06
2017-09-23T08:17:09.283Z,20.08
2017-09-23T08:19:40.010Z,20.10
2017-09-23T08:22:08.358Z,20.12
2017-09-23T08:24:37.807Z,20.14
2017-09-23T08:27:06.106Z,20.15
2017-09-23T08:29:33.318Z,20.17
2017-09-23T08:32:00.760Z,20.18
2017-09-23T08:34:28.047Z,20.19
2017-09-23T08:36:55.273Z,20.21
2017-09-23T08:39:22.534Z,20.21
2017-09-23T08:41:49.725Z,20.23
2017-09-23T08:44:17.168Z,20.26
2017-09-23T08:46:44.458Z,20.27
2017-09-23T08:49:11.790Z,20.28
2017-09-23T08:51:39.706Z,20.30
2017-09-23T08:54:06.999Z,20.32
2017-09-23T09:01:45.028Z,20.36
2017-09-23T09:04:12.173Z,20.38
2017-09-23T09:06:39.376Z,20.40
2017-09-23T09:09:06.584Z,20.41
2017-09-23T09:11:33.753Z,20.42
2017-09-23T09:14:01.009Z,20.45
2017-09-23T09:16:28.294Z,20.48
2017-09-23T09:18:55.460Z,20.51
2017-09-23T09:21:22.995Z,20.54
2017-09-23T09:23:51.301Z,20.58
2017-09-23T09:26:18.523Z,20.62
2017-09-23T09:28:45.785Z,20.66
2017-09-23T10:20:17.885Z,21.14
2017-09-23T10:25:18.327Z,21.17
2017-09-23T10:27:45.657Z,21.20
2017-09-23T11:14:34.601Z,21.50
2017-09-23T11:17:01.762Z,21.50
2017-09-23T11:19:28.930Z,21.52
2017-09-23T11:21:56.176Z,21.53
2017-09-23T11:24:23.327Z,21.55
2017-09-23T11:26:50.869Z,21.56
2017-09-23T11:29:24.679Z,21.57
2017-09-23T11:31:51.946Z,21.58
2017-09-23T11:34:19.143Z,21.59
2017-09-23T11:36:46.365Z,21.61
2017-09-23T11:39:13.647Z,21.62
2017-09-23T11:41:40.927Z,21.63
2017-09-23T11:44:08.169Z,21.63
2017-09-23T11:46:35.377Z,21.65
2017-09-23T11:49:02.526Z,21.65
2017-09-23T11:51:29.825Z,21.66
2017-09-23T11:53:57.110Z,21.68
2017-09-23T11:56:24.856Z,21.68
2017-09-23T11:58:52.486Z,21.68
2017-09-23T12:01:19.702Z,21.69
2017-09-23T12:03:52.433Z,21.71
2017-09-23T12:06:19.731Z,21.72
2017-09-23T12:08:46.955Z,21.73
2017-09-23T12:11:14.182Z,21.74
2017-09-23T12:13:41.366Z,21.75
2017-09-23T12:16:08.652Z,21.75
2017-09-23T12:18:36.019Z,21.76
2017-09-23T12:21:07.833Z,21.78
2017-09-23T12:23:35.284Z,21.80
2017-09-23T12:26:03.456Z,21.80
2017-09-23T12:28:31.587Z,21.81
2017-09-23T12:30:58.892Z,21.82
2017-09-23T12:33:27.220Z,21.84
2017-09-23T12:35:54.835Z,21.85
2017-09-23T12:38:22.176Z,21.86
2017-09-23T12:40:49.968Z,21.87
2017-09-23T12:43:17.721Z,21.88
2017-09-23T12:45:44.929Z,21.89
2017-09-23T12:48:12.088Z,21.90
2017-09-23T12:50:39.294Z,21.91
2017-09-23T12:53:06.470Z,21.91
2017-09-23T12:55:33.666Z,21.92
2017-09-23T12:58:00.889Z,21.93
2017-09-23T13:00:28.146Z,21.93
2017-09-23T13:02:55.473Z,21.94
2017-09-23T13:05:22.674Z,21.94
2017-09-23T13:07:50.033Z,21.95
2017-09-23T13:10:18.545Z,21.96
2017-09-23T13:15:18.166Z,21.94
2017-09-23T13:17:45.599Z,21.93
2017-09-23T13:20:15.206Z,21.91
2017-09-23T13:22:44.618Z,21.90
2017-09-23T13:25:15.045Z,21.90
2017-09-23T13:27:44.625Z,21.87
2017-09-23T13:30:14.678Z,21.86
2017-09-23T13:32:44.330Z,21.85
2017-09-23T13:37:46.061Z,21.85
2017-09-23T13:40:13.318Z,21.84
2017-09-23T13:42:40.684Z,21.83
2017-09-23T13:45:07.943Z,21.84
2017-09-23T13:47:40.707Z,21.84
2017-09-23T13:50:07.975Z,21.84
2017-09-23T13:52:35.202Z,21.84
2017-09-23T13:55:02.388Z,21.83
2017-09-23T13:57:29.627Z,21.83
2017-09-23T13:59:56.812Z,21.84
2017-09-23T14:02:24.086Z,21.84
2017-09-23T14:04:51.334Z,21.84
2017-09-23T14:07:20.165Z,21.83
2017-09-23T14:09:47.385Z,21.83
2017-09-23T14:48:18.312Z,21.77
2017-09-23T14:50:45.570Z,21.76
2017-09-23T14:53:12.739Z,21.74
2017-09-23T14:55:39.999Z,21.73
2017-09-23T14:58:10.792Z,21.71
2017-09-23T15:00:38.025Z,21.70
2017-09-23T15:03:05.239Z,21.68
2017-09-23T15:05:32.437Z,21.67
2017-09-23T15:07:59.685Z,21.66
2017-09-23T15:10:29.544Z,21.64
2017-09-23T15:12:56.816Z,21.63
2017-09-23T15:15:24.132Z,21.62
2017-09-23T15:17:51.386Z,21.61
2017-09-23T15:20:18.586Z,21.60
2017-09-23T15:22:45.816Z,21.58
2017-09-23T15:25:13.046Z,21.57
2017-09-23T15:27:40.326Z,21.56
2017-09-23T15:30:08.648Z,21.55
2017-09-23T15:32:35.815Z,21.54
2017-09-23T15:35:03.078Z,21.53
2017-09-23T15:37:30.349Z,21.51
2017-09-23T15:39:57.530Z,21.50
2017-09-23T15:42:24.734Z,21.49
2017-09-23T15:44:51.933Z,21.49
2017-09-23T15:47:19.146Z,21.47
2017-09-23T15:49:46.402Z,21.47
2017-09-23T15:52:13.622Z,21.45
2017-09-23T15:54:40.899Z,21.44
2017-09-23T15:57:08.069Z,21.44
2017-09-23T15:59:35.283Z,21.43
2017-09-23T16:02:02.456Z,21.42
2017-09-23T16:04:29.634Z,21.41
2017-09-23T16:06:56.901Z,21.40
2017-09-23T16:09:24.125Z,21.40
2017-09-23T16:11:51.950Z,21.39
2017-09-23T16:14:19.194Z,21.39
2017-09-23T16:16:46.377Z,21.39
2017-09-23T16:19:13.783Z,21.38
2017-09-23T16:21:40.988Z,21.36
2017-09-23T16:24:08.210Z,21.36
2017-09-23T16:26:35.369Z,21.34
2017-09-23T16:29:02.630Z,21.32
2017-09-23T16:31:29.891Z,21.31
2017-09-23T16:33:57.041Z,21.30
2017-09-23T16:36:24.268Z,21.27
2017-09-23T16:38:51.469Z,21.29
2017-09-23T16:41:18.655Z,21.28
2017-09-23T16:43:46.179Z,21.28
2017-09-23T16:46:13.354Z,21.27
2017-09-23T16:48:40.523Z,21.25
2017-09-23T16:51:07.765Z,21.25
2017-09-23T16:53:34.934Z,21.25
2017-09-23T16:56:02.161Z,21.24
2017-09-23T16:58:29.368Z,21.23
2017-09-23T17:00:56.651Z,21.23
2017-09-23T17:03:23.830Z,21.22
2017-09-23T17:05:57.379Z,21.21
2017-09-23T17:08:24.549Z,21.20
2017-09-23T17:10:51.785Z,21.20
2017-09-23T17:13:19.337Z,21.18
2017-09-23T17:18:20.383Z,21.16
2017-09-23T17:20:47.609Z,21.15
2017-09-23T17:23:14.828Z,21.14
2017-09-23T17:25:42.096Z,21.13
2017-09-23T17:28:09.361Z,21.12
2017-09-23T17:30:36.536Z,21.12
2017-09-23T17:33:03.815Z,21.11
2017-09-23T17:40:36.003Z,21.08
2017-09-23T17:43:04.681Z,21.06
2017-09-23T17:58:16.043Z,20.99
2017-09-23T18:00:46.016Z,20.97
2017-09-23T18:06:08.193Z,20.94
2017-09-23T18:08:35.522Z,20.94
2017-09-23T18:11:02.765Z,20.92
2017-09-23T18:13:29.972Z,20.91
2017-09-23T18:19:00.018Z,20.88
2017-09-23T18:21:27.294Z,20.88
2017-09-23T18:23:54.566Z,20.87
2017-09-23T18:28:55.045Z,20.84
2017-09-23T18:33:55.591Z,20.81
2017-09-23T18:38:55.060Z,20.78
2017-09-23T18:46:29.898Z,20.76
2017-09-23T19:06:39.448Z,20.68
2017-09-23T19:09:06.719Z,20.67
2017-09-23T19:11:39.862Z,20.67
2017-09-23T19:14:07.137Z,20.67
2017-09-23T19:16:34.382Z,20.65
2017-09-23T19:19:01.609Z,20.63
2017-09-23T19:21:28.912Z,20.63
2017-09-23T19:23:56.188Z,20.61
2017-09-23T19:26:23.446Z,20.60
2017-09-23T19:28:50.778Z,20.59
2017-09-23T19:31:18.019Z,20.58
2017-09-23T19:33:45.273Z,20.57
2017-09-23T19:36:12.528Z,20.57
2017-09-23T19:38:39.881Z,20.56
2017-09-23T19:41:07.136Z,20.55
2017-09-23T19:43:34.407Z,20.54
2017-09-23T19:46:01.644Z,20.53
2017-09-23T19:48:28.865Z,20.53
2017-09-23T19:50:56.116Z,20.51
2017-09-23T19:53:23.469Z,20.51
2017-09-23T19:55:50.753Z,20.50
2017-09-23T19:58:18.027Z,20.49
2017-09-23T20:03:18.214Z,20.47
2017-09-23T20:05:45.510Z,20.46
2017-09-23T20:08:12.808Z,20.45
2017-09-23T20:10:40.112Z,20.43
2017-09-23T20:13:07.459Z,20.43
2017-09-23T20:15:34.676Z,20.42
2017-09-23T20:18:01.915Z,20.41
2017-09-23T20:20:29.180Z,20.40
2017-09-23T20:22:56.499Z,20.40
2017-09-23T20:25:23.778Z,20.39
2017-09-23T20:27:51.149Z,20.38
2017-09-23T20:30:18.388Z,20.38
2017-09-23T20:32:45.692Z,20.37
2017-09-23T20:35:12.952Z,20.35
2017-09-23T20:40:13.414Z,20.33
2017-09-23T20:42:40.660Z,20.31
2017-09-23T20:45:07.901Z,20.31
2017-09-23T20:47:35.157Z,20.31
2017-09-23T21:05:15.922Z,20.24
2017-09-23T21:07:43.206Z,20.23
2017-09-23T21:10:10.459Z,20.22
2017-09-23T21:12:37.748Z,20.21
2017-09-23T21:15:05.163Z,20.20
2017-09-23T21:17:32.396Z,20.20
2017-09-23T21:20:05.239Z,20.19
2017-09-23T21:22:32.567Z,20.18
2017-09-23T21:24:59.754Z,20.17
2017-09-23T21:27:27.044Z,20.16
2017-09-23T21:29:54.315Z,20.15
2017-09-23T21:32:21.543Z,20.14
2017-09-23T21:34:53.894Z,20.13
2017-09-23T21:37:21.224Z,20.10
2017-09-23T21:39:48.471Z,20.10
2017-09-23T21:42:15.637Z,20.10
2017-09-23T21:44:42.941Z,20.09
2017-09-23T21:47:10.153Z,20.09
2017-09-23T21:49:37.475Z,20.07
2017-09-23T21:52:04.691Z,20.07
2017-09-23T21:54:31.915Z,20.06
2017-09-23T21:56:59.131Z,20.06
2017-09-23T21:59:26.485Z,20.05
2017-09-23T22:01:53.687Z,20.04
2017-09-23T22:04:20.893Z,20.03
2017-09-23T22:06:48.170Z,20.03
2017-09-23T22:09:15.339Z,20.01
2017-09-23T22:11:42.538Z,19.99
2017-09-23T22:14:09.750Z,19.99
2017-09-23T22:16:37.014Z,19.98
2017-09-23T22:19:04.219Z,19.97
2017-09-23T22:34:11.139Z,19.91
2017-09-23T22:39:11.778Z,19.89
2017-09-23T22:41:39.423Z,19.89
2017-09-23T22:44:06.651Z,19.88
2017-09-23T22:46:34.007Z,19.87
2017-09-23T22:49:01.357Z,19.86
2017-09-23T22:51:28.620Z,19.86
2017-09-23T22:53:55.864Z,19.85
2017-09-23T22:56:23.106Z,19.84
2017-09-23T22:58:50.370Z,19.83
2017-09-23T23:01:18.567Z,19.81
2017-09-23T23:03:45.824Z,19.80
2017-09-23T23:06:13.064Z,19.79
2017-09-23T23:08:40.309Z,19.79
2017-09-23T23:11:07.525Z,19.79
2017-09-23T23:13:34.769Z,19.77
2017-09-23T23:16:02.056Z,19.78
2017-09-23T23:18:29.291Z,19.76
2017-09-23T23:20:56.537Z,19.76
2017-09-23T23:23:23.800Z,19.74
2017-09-23T23:25:51.108Z,19.72
2017-09-23T23:28:18.614Z,19.72
2017-09-23T23:30:45.877Z,19.72
2017-09-23T23:33:13.158Z,19.71
2017-09-23T23:35:40.381Z,19.70
2017-09-23T23:38:07.567Z,19.69
2017-09-23T23:40:34.806Z,19.68
2017-09-23T23:43:02.024Z,19.67
2017-09-23T23:45:29.323Z,19.67
2017-09-23T23:47:56.526Z,19.67
2017-09-23T23:50:23.783Z,19.65
2017-09-23T23:52:52.108Z,19.64
2017-09-23T23:55:19.348Z,19.63
2017-09-23T23:57:46.663Z,19.63
